createdAt,value
2019-04-16T00:00:29.918Z,1.70
2019-04-16T00:02:59.846Z,1.70
2019-04-16T00:05:31.158Z,1.70
2019-04-16T00:08:27.077Z,1.70
2019-04-16T00:10:47.619Z,1.70
2019-04-16T00:13:22.049Z,1.70
2019-04-16T00:15:53.332Z,1.70
2019-04-16T00:18:23.164Z,1.70
2019-04-16T00:21:00.552Z,1.70
2019-04-16T00:23:48.053Z,1.70
2019-04-16T00:26:17.804Z,1.60
2019-04-16T00:28:47.449Z,1.60
2019-04-16T00:31:17.212Z,1.60
2019-04-16T00:33:46.865Z,1.60
2019-04-16T00:36:18.054Z,1.60
2019-04-16T00:38:47.890Z,1.50
2019-04-16T00:41:17.601Z,1.50
2019-04-16T00:43:47.341Z,1.50
2019-04-16T00:46:17.000Z,1.50
2019-04-16T00:48:46.613Z,1.50
2019-04-16T00:51:16.326Z,1.50
2019-04-16T00:53:45.908Z,1.50
2019-04-16T00:56:16.211Z,1.50
2019-04-16T00:58:46.543Z,1.50
2019-04-16T01:01:16.204Z,1.40
2019-04-16T01:03:45.885Z,1.50
2019-04-16T01:06:15.495Z,1.40
2019-04-16T01:08:54.394Z,1.40
2019-04-16T01:11:16.517Z,1.40
2019-04-16T01:13:46.226Z,1.40
2019-04-16T01:16:15.931Z,1.40
2019-04-16T01:18:45.666Z,1.40
2019-04-16T01:21:15.307Z,1.50
2019-04-16T01:23:48.305Z,1.50
2019-04-16T01:26:16.251Z,1.50
2019-04-16T01:28:53.629Z,1.50
2019-04-16T01:31:24.932Z,1.50
2019-04-16T01:33:56.162Z,1.50
2019-04-16T01:36:33.081Z,1.50
2019-04-16T01:39:16.042Z,1.50
2019-04-16T01:41:50.279Z,1.60
2019-04-16T01:44:19.214Z,1.60
2019-04-16T01:46:48.897Z,1.60
2019-04-16T01:49:18.534Z,1.60
2019-04-16T01:51:49.333Z,1.60
2019-04-16T01:54:22.624Z,1.60
2019-04-16T01:56:50.306Z,1.60
2019-04-16T01:59:19.985Z,1.50
2019-04-16T02:01:49.701Z,1.60
2019-04-16T02:04:19.931Z,1.60
2019-04-16T02:06:50.119Z,1.60
2019-04-16T02:09:22.653Z,1.50
2019-04-16T02:11:51.106Z,1.60
2019-04-16T02:14:22.394Z,1.50
2019-04-16T02:16:55.743Z,1.50
2019-04-16T02:19:23.453Z,1.50
2019-04-16T02:21:53.158Z,1.50
2019-04-16T02:24:22.790Z,1.50
2019-04-16T02:26:54.798Z,1.50
2019-04-16T02:29:23.749Z,1.40
2019-04-16T02:31:53.446Z,1.40
2019-04-16T02:34:23.123Z,1.40
2019-04-16T02:36:52.979Z,1.40
2019-04-16T02:39:38.713Z,1.30
2019-04-16T02:41:58.243Z,1.30
2019-04-16T02:44:25.290Z,1.30
2019-04-16T02:46:55.023Z,1.30
2019-04-16T02:49:25.248Z,1.30
2019-04-16T02:51:59.704Z,1.20
2019-04-16T02:54:37.147Z,1.20
2019-04-16T02:57:25.774Z,1.20
2019-04-16T02:59:52.574Z,1.10
2019-04-16T03:02:41.877Z,1.10
2019-04-16T03:05:26.518Z,1.00
2019-04-16T03:07:56.668Z,1.00
2019-04-16T03:10:26.361Z,1.00
2019-04-16T03:12:56.348Z,0.90
2019-04-16T03:15:43.916Z,0.90
2019-04-16T03:18:16.213Z,0.80
2019-04-16T03:20:47.004Z,0.80
2019-04-16T03:23:16.665Z,0.80
2019-04-16T03:25:46.381Z,0.80
2019-04-16T03:28:16.048Z,0.70
2019-04-16T03:30:45.710Z,0.80
2019-04-16T03:33:16.014Z,0.70
2019-04-16T03:35:46.149Z,0.70
2019-04-16T03:38:15.970Z,0.60
2019-04-16T03:40:45.613Z,0.60
2019-04-16T03:43:15.345Z,0.60
2019-04-16T03:45:45.101Z,0.60
2019-04-16T03:48:14.825Z,0.60
2019-04-16T03:50:44.559Z,0.50
2019-04-16T03:53:17.562Z,0.50
2019-04-16T03:55:45.533Z,0.50
2019-04-16T03:58:15.312Z,0.50
2019-04-16T04:00:46.019Z,0.50
2019-04-16T04:03:15.683Z,0.50
2019-04-16T04:05:46.946Z,0.50
2019-04-16T04:08:17.976Z,0.50
2019-04-16T04:10:48.039Z,0.50
2019-04-16T04:13:18.798Z,0.50
2019-04-16T04:15:48.895Z,0.50
2019-04-16T04:18:18.549Z,0.50
2019-04-16T04:20:50.624Z,0.50
2019-04-16T04:23:19.422Z,0.50
2019-04-16T04:25:49.132Z,0.50
2019-04-16T04:28:20.355Z,0.50
2019-04-16T04:30:50.382Z,0.60
2019-04-16T04:36:11.570Z,0.60
2019-04-16T04:38:41.225Z,0.60
2019-04-16T04:41:10.905Z,0.60
2019-04-16T04:43:09.930Z,0.60
2019-04-16T04:43:41.569Z,0.60
2019-04-16T04:46:23.360Z,0.70
2019-04-16T04:48:55.696Z,0.60
2019-04-16T04:51:24.309Z,0.70
2019-04-16T04:53:53.966Z,0.70
2019-04-16T04:56:27.727Z,0.70
2019-04-16T04:58:54.962Z,0.70
2019-04-16T05:01:24.595Z,0.70
2019-04-16T05:04:19.276Z,0.80
2019-04-16T05:06:50.475Z,0.80
2019-04-16T05:09:20.190Z,0.80
2019-04-16T05:11:49.914Z,0.80
2019-04-16T05:14:19.578Z,0.90
2019-04-16T05:16:49.185Z,0.90
2019-04-16T05:19:18.964Z,0.90
2019-04-16T05:21:50.069Z,1.00
2019-04-16T05:24:19.978Z,1.00
2019-04-16T05:26:49.647Z,1.10
2019-04-16T05:29:19.363Z,1.10
2019-04-16T05:31:50.009Z,1.10
2019-04-16T05:34:19.679Z,1.20
2019-04-16T05:36:49.327Z,1.30
2019-04-16T05:39:18.906Z,1.30
2019-04-16T05:41:50.468Z,1.40
2019-04-16T05:44:19.826Z,1.50
2019-04-16T05:46:49.568Z,1.50
2019-04-16T05:49:19.237Z,1.60
2019-04-16T05:51:48.953Z,1.60
2019-04-16T05:54:35.557Z,1.70
2019-04-16T05:57:13.275Z,1.80
2019-04-16T05:59:42.998Z,1.90
2019-04-16T06:02:18.782Z,2.00
2019-04-16T06:04:49.725Z,2.00
2019-04-16T06:07:19.378Z,2.10
2019-04-16T06:09:50.092Z,2.10
2019-04-16T06:12:21.368Z,2.20
2019-04-16T06:14:54.055Z,2.30
2019-04-16T06:17:31.733Z,2.30
2019-04-16T06:20:01.212Z,2.40
2019-04-16T06:22:36.701Z,2.50
2019-04-16T06:25:24.519Z,2.60
2019-04-16T06:27:58.771Z,2.70
2019-04-16T06:30:58.069Z,2.80
2019-04-16T06:33:35.689Z,2.90
2019-04-16T06:36:09.830Z,3.00
2019-04-16T06:38:50.285Z,3.10
2019-04-16T06:41:41.878Z,3.20
2019-04-16T06:44:09.397Z,3.30
2019-04-16T06:46:43.431Z,3.40
2019-04-16T06:49:18.768Z,3.50
2019-04-16T06:52:06.672Z,3.60
2019-04-16T06:54:45.443Z,3.70
2019-04-16T06:57:33.187Z,3.90
2019-04-16T07:00:19.614Z,3.90
2019-04-16T07:03:08.341Z,4.10
2019-04-16T07:05:42.590Z,4.20
2019-04-16T07:08:36.353Z,4.40
2019-04-16T07:10:58.580Z,4.60
2019-04-16T07:13:28.415Z,4.70
2019-04-16T07:15:58.264Z,4.90
2019-04-16T07:18:27.942Z,5.00
2019-04-16T07:20:57.640Z,5.10
2019-04-16T07:23:27.466Z,5.20
2019-04-16T07:25:57.365Z,5.30
2019-04-16T07:28:34.977Z,5.40
2019-04-16T07:31:32.933Z,5.60
2019-04-16T07:34:07.253Z,5.70
2019-04-16T07:36:59.900Z,5.80
2019-04-16T07:39:39.355Z,5.90
2019-04-16T07:42:14.113Z,6.00
2019-04-16T07:44:46.289Z,6.10
2019-04-16T07:47:29.685Z,6.20
2019-04-16T07:50:03.925Z,6.30
2019-04-16T07:52:42.071Z,6.40
2019-04-16T07:55:29.134Z,6.50
2019-04-16T07:57:58.799Z,6.60
2019-04-16T08:00:28.487Z,6.70
2019-04-16T08:02:58.126Z,6.90
2019-04-16T08:05:28.232Z,7.00
2019-04-16T08:07:58.046Z,7.10
2019-04-16T08:10:27.713Z,7.20
2019-04-16T08:13:00.554Z,7.40
2019-04-16T08:15:30.335Z,7.50
2019-04-16T08:18:00.012Z,7.60
2019-04-16T08:20:29.662Z,7.70
2019-04-16T08:23:00.957Z,7.90
2019-04-16T08:25:34.786Z,8.00
2019-04-16T08:28:07.033Z,8.20
2019-04-16T08:30:39.368Z,8.40
2019-04-16T08:33:10.341Z,8.50
2019-04-16T08:35:38.345Z,8.60
2019-04-16T08:38:07.953Z,8.70
2019-04-16T08:40:37.589Z,8.80
2019-04-16T08:43:07.198Z,8.80
2019-04-16T08:45:39.838Z,8.90
2019-04-16T08:48:09.246Z,9.10
2019-04-16T08:50:40.504Z,9.20
2019-04-16T08:53:13.534Z,9.30
2019-04-16T08:55:41.517Z,9.40
2019-04-16T08:58:12.796Z,9.50
2019-04-16T09:00:46.541Z,9.70
2019-04-16T09:03:15.534Z,9.80
2019-04-16T09:05:45.361Z,10.00
2019-04-16T09:08:22.730Z,10.10
2019-04-16T09:10:52.517Z,10.30
2019-04-16T09:13:41.074Z,10.50
2019-04-16T09:16:11.153Z,10.50
2019-04-16T09:18:44.998Z,10.60
2019-04-16T09:21:14.647Z,10.70
2019-04-16T09:23:45.903Z,10.80
2019-04-16T09:26:22.534Z,10.90
2019-04-16T09:28:57.127Z,11.00
2019-04-16T09:31:34.417Z,11.00
2019-04-16T09:34:08.705Z,11.10
2019-04-16T09:36:40.070Z,11.20
2019-04-16T09:39:11.331Z,11.30
2019-04-16T09:41:42.380Z,11.40
2019-04-16T09:44:11.974Z,11.50
2019-04-16T09:46:59.546Z,11.60
2019-04-16T09:49:12.851Z,11.60
2019-04-16T09:51:42.430Z,11.70
2019-04-16T09:54:13.596Z,11.80
2019-04-16T09:56:43.283Z,11.90
2019-04-16T09:59:16.280Z,11.90
2019-04-16T10:01:47.414Z,12.00
2019-04-16T10:04:18.800Z,12.00
2019-04-16T10:06:48.488Z,11.90
2019-04-16T10:09:21.643Z,12.00
2019-04-16T10:11:49.415Z,11.90
2019-04-16T10:14:19.055Z,12.10
2019-04-16T10:16:48.778Z,12.10
2019-04-16T10:19:21.088Z,12.30
2019-04-16T10:21:53.259Z,12.40
2019-04-16T10:24:22.576Z,12.50
2019-04-16T10:26:56.872Z,12.60
2019-04-16T10:29:27.803Z,12.70
2019-04-16T10:31:57.507Z,12.80
2019-04-16T10:34:27.167Z,12.90
2019-04-16T10:36:56.726Z,12.90
2019-04-16T10:39:27.947Z,12.90
2019-04-16T10:42:15.486Z,13.00
2019-04-16T10:45:03.557Z,13.10
2019-04-16T10:47:40.619Z,13.20
2019-04-16T10:50:13.359Z,13.30
2019-04-16T10:52:56.963Z,13.40
2019-04-16T10:55:28.256Z,13.50
2019-04-16T10:57:59.634Z,13.60
2019-04-16T11:00:36.588Z,13.60
2019-04-16T11:03:23.119Z,13.60
2019-04-16T11:05:57.073Z,13.70
2019-04-16T11:08:25.721Z,13.80
2019-04-16T11:10:55.388Z,13.90
2019-04-16T11:13:26.725Z,14.00
2019-04-16T11:15:58.989Z,14.20
2019-04-16T11:18:28.679Z,14.10
2019-04-16T11:20:58.398Z,14.30
2019-04-16T11:23:28.103Z,14.30
2019-04-16T11:25:57.795Z,14.50
2019-04-16T11:28:27.539Z,14.60
2019-04-16T11:30:58.860Z,14.70
2019-04-16T11:33:28.574Z,14.90
2019-04-16T11:35:58.213Z,15.00
2019-04-16T11:38:27.864Z,15.10
2019-04-16T11:40:57.588Z,15.20
2019-04-16T11:43:27.324Z,15.20
2019-04-16T11:45:57.045Z,15.20
2019-04-16T11:48:26.797Z,15.10
2019-04-16T11:50:57.405Z,15.10
2019-04-16T11:53:27.060Z,15.00
2019-04-16T11:55:56.863Z,15.10
2019-04-16T11:58:31.961Z,15.20
2019-04-16T12:01:12.614Z,15.30
2019-04-16T12:03:46.686Z,15.30
2019-04-16T12:06:34.356Z,15.30
2019-04-16T12:09:15.853Z,15.00
2019-04-16T12:11:47.174Z,15.10
2019-04-16T12:14:32.220Z,15.20
2019-04-16T12:17:12.414Z,15.30
2019-04-16T12:19:46.408Z,15.50
2019-04-16T12:22:23.329Z,15.60
2019-04-16T12:24:57.605Z,15.80
2019-04-16T12:27:45.093Z,15.70
2019-04-16T12:30:16.605Z,15.80
2019-04-16T12:32:47.899Z,15.90
2019-04-16T12:35:19.217Z,16.10
2019-04-16T12:38:12.264Z,16.30
2019-04-16T12:40:42.320Z,16.50
2019-04-16T12:43:25.623Z,16.60
2019-04-16T12:45:57.894Z,16.70
2019-04-16T12:48:31.787Z,16.80
2019-04-16T12:51:03.446Z,16.70
2019-04-16T12:53:37.709Z,16.70
2019-04-16T12:56:14.986Z,16.70
2019-04-16T12:58:57.641Z,16.60
2019-04-16T13:01:36.492Z,16.60
2019-04-16T13:04:10.686Z,16.50
2019-04-16T13:06:44.857Z,16.50
2019-04-16T13:09:25.367Z,16.50
2019-04-16T13:11:59.573Z,16.50
2019-04-16T13:14:30.810Z,16.40
2019-04-16T13:17:04.792Z,16.20
2019-04-16T13:19:48.290Z,16.20
2019-04-16T13:22:28.499Z,16.20
2019-04-16T13:24:59.794Z,16.10
2019-04-16T13:27:37.101Z,15.90
2019-04-16T13:30:11.099Z,15.90
2019-04-16T13:32:40.791Z,15.70
2019-04-16T13:35:10.544Z,15.80
2019-04-16T13:37:40.145Z,15.60
2019-04-16T13:40:12.049Z,15.60
2019-04-16T13:42:41.683Z,15.50
2019-04-16T13:45:32.317Z,15.20
2019-04-16T13:48:16.132Z,15.60
2019-04-16T13:50:40.470Z,15.90
2019-04-16T13:53:28.641Z,16.10
2019-04-16T13:55:56.865Z,16.00
2019-04-16T13:58:34.003Z,16.20
2019-04-16T14:01:18.040Z,16.30
2019-04-16T14:03:47.705Z,16.50
2019-04-16T14:06:17.371Z,16.70
2019-04-16T14:08:47.105Z,16.50
2019-04-16T14:11:19.704Z,16.50
2019-04-16T14:13:50.167Z,16.30
2019-04-16T14:16:19.394Z,16.40
2019-04-16T14:18:50.062Z,16.30
2019-04-16T14:21:19.831Z,16.30
2019-04-16T14:23:49.409Z,16.30
2019-04-16T14:26:19.264Z,16.20
2019-04-16T14:28:52.418Z,15.90
2019-04-16T14:31:22.140Z,15.90
2019-04-16T14:34:09.521Z,15.90
2019-04-16T14:36:39.239Z,16.10
2019-04-16T14:39:16.603Z,15.90
2019-04-16T14:41:50.200Z,15.90
2019-04-16T14:44:19.293Z,15.70
2019-04-16T14:46:49.010Z,15.60
2019-04-16T14:49:19.089Z,15.50
2019-04-16T14:51:48.908Z,15.50
2019-04-16T14:54:29.196Z,15.50
2019-04-16T14:57:01.534Z,15.20
2019-04-16T14:59:35.683Z,15.30
2019-04-16T15:02:23.857Z,15.00
2019-04-16T15:05:05.536Z,15.10
2019-04-16T15:07:36.816Z,15.20
2019-04-16T15:10:12.599Z,15.30
2019-04-16T15:12:46.609Z,15.20
2019-04-16T15:15:26.807Z,15.10
2019-04-16T15:18:10.406Z,15.20
2019-04-16T15:20:57.903Z,15.30
2019-04-16T15:23:29.193Z,15.50
2019-04-16T15:26:16.936Z,15.80
2019-04-16T15:28:51.115Z,16.10
2019-04-16T15:31:32.927Z,16.40
2019-04-16T15:34:19.111Z,16.60
2019-04-16T15:37:02.589Z,16.60
2019-04-16T15:39:36.428Z,16.70
2019-04-16T15:42:24.923Z,16.70
2019-04-16T15:44:57.413Z,16.80
2019-04-16T15:47:46.001Z,16.80
2019-04-16T15:50:20.911Z,16.50
2019-04-16T15:52:55.285Z,16.40
2019-04-16T15:55:35.879Z,16.40
2019-04-16T15:58:07.727Z,16.50
2019-04-16T16:00:49.348Z,16.70
2019-04-16T16:03:26.110Z,16.80
2019-04-16T16:06:00.094Z,16.90
2019-04-16T16:08:47.478Z,17.00
2019-04-16T16:11:34.899Z,17.00
2019-04-16T16:14:05.351Z,16.90
2019-04-16T16:16:41.954Z,16.60
2019-04-16T16:19:10.884Z,16.50
2019-04-16T16:21:37.665Z,16.40
2019-04-16T16:24:08.418Z,16.40
2019-04-16T16:26:38.401Z,16.30
2019-04-16T16:29:08.075Z,16.30
2019-04-16T16:31:37.729Z,16.30
2019-04-16T16:34:09.347Z,16.30
2019-04-16T16:36:40.671Z,16.20
2019-04-16T16:39:10.179Z,16.10
2019-04-16T16:41:41.328Z,16.00
2019-04-16T16:44:11.079Z,15.80
2019-04-16T16:46:56.009Z,15.50
2019-04-16T16:49:14.752Z,15.40
2019-04-16T16:51:58.134Z,15.30
2019-04-16T16:54:28.598Z,15.30
2019-04-16T16:57:08.168Z,15.20
2019-04-16T16:59:38.586Z,15.10
2019-04-16T17:02:24.538Z,15.10
2019-04-16T17:04:56.182Z,15.00
2019-04-16T17:07:25.963Z,14.90
2019-04-16T17:09:55.622Z,14.80
2019-04-16T17:12:25.360Z,14.60
2019-04-16T17:14:55.007Z,14.50
2019-04-16T17:17:24.612Z,14.30
2019-04-16T17:19:54.278Z,14.00
2019-04-16T17:22:23.984Z,13.80
2019-04-16T17:24:53.740Z,13.60
2019-04-16T17:27:23.401Z,13.40
2019-04-16T17:29:53.130Z,13.20
2019-04-16T17:32:22.946Z,13.00
2019-04-16T17:34:52.692Z,12.80
2019-04-16T17:37:27.989Z,12.60
2019-04-16T17:39:54.639Z,12.50
2019-04-16T17:42:37.159Z,12.30
2019-04-16T17:45:22.136Z,12.10
2019-04-16T17:48:02.788Z,11.90
2019-04-16T17:50:46.203Z,11.70
2019-04-16T17:53:23.471Z,11.60
2019-04-16T17:56:10.046Z,11.40
2019-04-16T17:58:56.339Z,11.30
2019-04-16T18:01:44.502Z,11.20
2019-04-16T18:04:18.933Z,11.10
2019-04-16T18:07:08.788Z,10.90
2019-04-16T18:09:40.091Z,10.80
2019-04-16T18:12:11.430Z,10.70
2019-04-16T18:14:59.075Z,10.60
2019-04-16T18:17:47.636Z,10.50
2019-04-16T18:20:19.101Z,10.30
2019-04-16T18:23:06.786Z,10.20
2019-04-16T18:25:55.434Z,10.10
2019-04-16T18:28:21.209Z,9.90
2019-04-16T18:30:52.545Z,9.80
2019-04-16T18:33:23.838Z,9.70
2019-04-16T18:36:03.907Z,9.50
2019-04-16T18:38:41.192Z,9.40
2019-04-16T18:41:21.311Z,9.30
2019-04-16T18:43:58.325Z,9.20
2019-04-16T18:46:47.722Z,9.10
2019-04-16T18:49:24.938Z,9.00
2019-04-16T18:51:54.660Z,8.90
2019-04-16T18:54:24.325Z,8.80
2019-04-16T18:56:54.182Z,8.70
2019-04-16T18:59:23.889Z,8.70
2019-04-16T19:01:55.190Z,8.60
2019-04-16T19:04:24.845Z,8.50
2019-04-16T19:06:54.557Z,8.40
2019-04-16T19:09:24.295Z,8.30
2019-04-16T19:11:54.175Z,8.30
2019-04-16T19:14:24.453Z,8.20
2019-04-16T19:16:54.135Z,8.10
2019-04-16T19:19:23.792Z,8.00
2019-04-16T19:21:53.587Z,8.00
2019-04-16T19:24:23.223Z,7.90
2019-04-16T19:26:52.966Z,7.80
2019-04-16T19:29:22.630Z,7.70
2019-04-16T19:31:55.756Z,7.60
2019-04-16T19:34:23.596Z,7.60
2019-04-16T19:36:55.967Z,7.50
2019-04-16T19:39:24.639Z,7.40
2019-04-16T19:41:57.244Z,7.30
2019-04-16T19:44:25.638Z,7.30
2019-04-16T19:46:55.306Z,7.20
2019-04-16T19:49:25.014Z,7.10
2019-04-16T19:51:54.678Z,7.00
2019-04-16T19:54:24.405Z,7.00
2019-04-16T19:56:54.076Z,6.90
2019-04-16T19:59:23.752Z,6.80
2019-04-16T20:01:56.000Z,6.80
2019-04-16T20:04:24.781Z,6.70
2019-04-16T20:06:59.732Z,6.60
2019-04-16T20:09:25.727Z,6.50
2019-04-16T20:11:56.372Z,6.50
2019-04-16T20:14:26.505Z,6.30
2019-04-16T20:16:56.157Z,6.20
2019-04-16T20:19:25.843Z,6.10
2019-04-16T20:21:55.471Z,6.00
2019-04-16T20:24:25.151Z,5.90
2019-04-16T20:26:55.067Z,5.90
2019-04-16T20:29:24.682Z,5.80
2019-04-16T20:31:54.337Z,5.80
2019-04-16T20:34:24.188Z,5.70
2019-04-16T20:36:55.778Z,5.70
2019-04-16T20:39:25.156Z,5.60
2019-04-16T20:41:58.992Z,5.50
2019-04-16T20:44:26.224Z,5.50
2019-04-16T20:46:58.289Z,5.40
2019-04-16T20:49:28.057Z,5.40
2019-04-16T20:52:00.445Z,5.30
2019-04-16T20:54:28.985Z,5.30
2019-04-16T20:56:58.755Z,5.20
2019-04-16T20:59:28.485Z,5.20
2019-04-16T21:01:58.215Z,5.10
2019-04-16T21:04:27.937Z,5.00
2019-04-16T21:06:57.836Z,5.00
2019-04-16T21:09:30.130Z,5.00
2019-04-16T21:11:59.804Z,4.90
2019-04-16T21:14:29.380Z,4.90
2019-04-16T21:16:59.054Z,4.90
2019-04-16T21:19:47.988Z,4.90
2019-04-16T21:22:18.339Z,4.90
2019-04-16T21:24:49.073Z,4.80
2019-04-16T21:27:18.778Z,4.80
2019-04-16T21:29:48.393Z,4.80
2019-04-16T21:32:19.691Z,4.80
2019-04-16T21:34:50.932Z,4.70
2019-04-16T21:37:28.520Z,4.70
2019-04-16T21:40:03.206Z,4.70
2019-04-16T21:42:34.984Z,4.60
2019-04-16T21:45:06.529Z,4.60
2019-04-16T21:47:36.173Z,4.60
2019-04-16T21:50:08.631Z,4.50
2019-04-16T21:52:38.287Z,4.50
2019-04-16T21:55:08.158Z,4.50
2019-04-16T21:57:37.821Z,4.50
2019-04-16T22:00:10.131Z,4.50
2019-04-16T22:02:41.705Z,4.50
2019-04-16T22:05:11.529Z,4.50
2019-04-16T22:07:41.435Z,4.40
2019-04-16T22:10:14.111Z,4.40
2019-04-16T22:12:44.712Z,4.40
2019-04-16T22:15:15.229Z,4.40
2019-04-16T22:17:44.920Z,4.40
2019-04-16T22:20:14.605Z,4.30
2019-04-16T22:22:46.566Z,4.30
2019-04-16T22:25:15.672Z,4.30
2019-04-16T22:27:45.350Z,4.30
2019-04-16T22:30:19.153Z,4.30
2019-04-16T22:32:46.454Z,4.20
2019-04-16T22:35:16.108Z,4.20
2019-04-16T22:37:45.771Z,4.20
2019-04-16T22:40:22.569Z,4.20
2019-04-16T22:42:49.957Z,4.10
2019-04-16T22:45:27.470Z,4.10
2019-04-16T22:47:57.198Z,4.10
2019-04-16T22:50:26.867Z,4.10
2019-04-16T22:52:56.459Z,4.10
2019-04-16T22:55:26.120Z,4.10
2019-04-16T22:57:56.437Z,4.10
2019-04-16T23:00:27.782Z,4.00
2019-04-16T23:02:57.523Z,4.00
2019-04-16T23:05:27.846Z,4.00
2019-04-16T23:07:58.459Z,4.00
2019-04-16T23:10:28.164Z,3.90
2019-04-16T23:13:00.669Z,3.90
2019-04-16T23:15:29.491Z,3.80
2019-04-16T23:17:59.145Z,3.80
2019-04-16T23:20:33.381Z,3.80
2019-04-16T23:23:01.154Z,3.80
2019-04-16T23:25:30.790Z,3.80
2019-04-16T23:28:01.046Z,3.80
2019-04-16T23:30:30.682Z,3.70
2019-04-16T23:33:01.422Z,3.70
2019-04-16T23:35:32.961Z,3.70
2019-04-16T23:38:02.723Z,3.70
2019-04-16T23:40:32.456Z,3.70
2019-04-16T23:43:22.200Z,3.70
2019-04-16T23:46:09.227Z,3.70
2019-04-16T23:48:58.602Z,3.70
2019-04-16T23:51:49.083Z,3.70
2019-04-16T23:54:26.330Z,3.70
2019-04-16T23:57:03.595Z,3.70
